createdAt,value
2023-01-21T00:01:02.415Z,-1.63
2023-01-21T00:03:29.396Z,-1.91
2023-01-21T00:05:58.294Z,-2.87
2023-01-21T00:08:25.863Z,-3.29
2023-01-21T00:10:52.894Z,-2.69
2023-01-21T00:13:19.858Z,-2.75
2023-01-21T00:15:46.804Z,-2.39
2023-01-21T00:18:13.969Z,-3.35
2023-01-21T00:20:41.097Z,-2.58
2023-01-21T00:23:08.139Z,-2.52
2023-01-21T00:25:35.112Z,-2.49
2023-01-21T00:28:02.052Z,-3.15
2023-01-21T00:30:30.633Z,-2.26
2023-01-21T00:32:57.698Z,-1.91
2023-01-21T00:35:24.662Z,-2.24
2023-01-21T00:37:52.206Z,-1.88
2023-01-21T00:40:19.310Z,-1.65
2023-01-21T00:42:46.324Z,-1.99
2023-01-21T00:45:13.294Z,-2.46
2023-01-21T00:47:40.335Z,-3.14
2023-01-21T00:50:08.940Z,-2.28
2023-01-21T00:52:36.079Z,-1.97
2023-01-21T00:55:03.347Z,-2.03
2023-01-21T00:57:30.462Z,-1.88
2023-01-21T00:59:57.705Z,-2.04
2023-01-21T01:02:24.691Z,-2.17
2023-01-21T01:04:51.704Z,-2.89
2023-01-21T01:07:18.658Z,-2.94
2023-01-21T01:09:45.729Z,-2.89
2023-01-21T01:12:12.632Z,-2.02
2023-01-21T01:14:39.591Z,-1.76
2023-01-21T01:17:06.523Z,-2.26
2023-01-21T01:19:33.519Z,-2.57
2023-01-21T01:22:00.456Z,-2.08
2023-01-21T01:24:27.598Z,-1.70
2023-01-21T01:26:54.454Z,-1.72
2023-01-21T01:29:21.498Z,-2.20
2023-01-21T01:31:48.496Z,-2.36
2023-01-21T01:34:15.549Z,-2.05
2023-01-21T01:36:42.490Z,-2.07
2023-01-21T01:39:09.407Z,-2.53
2023-01-21T01:41:36.437Z,-3.45
2023-01-21T01:44:05.210Z,-2.97
2023-01-21T01:46:33.830Z,-2.31
2023-01-21T01:49:13.042Z,-1.69
2023-01-21T01:51:51.028Z,-1.79
2023-01-21T01:54:20.732Z,-2.06
2023-01-21T01:56:48.514Z,-1.66
2023-01-21T01:59:15.519Z,-1.49
2023-01-21T02:01:42.410Z,-1.44
2023-01-21T02:04:12.223Z,-1.28
2023-01-21T02:06:39.323Z,-1.59
2023-01-21T02:09:06.240Z,-1.73
2023-01-21T02:11:33.291Z,-2.52
2023-01-21T02:14:00.295Z,-2.58
2023-01-21T02:16:46.305Z,-2.81
2023-01-21T02:19:45.054Z,-2.87
2023-01-21T02:22:50.973Z,-2.76
2023-01-21T02:25:42.251Z,-2.50
2023-01-21T02:28:24.346Z,-2.47
2023-01-21T02:31:04.923Z,-2.12
2023-01-21T02:33:47.111Z,-2.05
2023-01-21T02:36:13.987Z,-2.49
2023-01-21T02:38:53.467Z,-2.95
2023-01-21T02:41:32.426Z,-3.41
2023-01-21T02:44:22.854Z,-2.73
2023-01-21T02:47:06.273Z,-3.41
2023-01-21T02:49:42.656Z,-3.38
2023-01-21T02:52:17.717Z,-2.87
2023-01-21T02:54:52.420Z,-3.83
2023-01-21T02:57:43.245Z,-3.01
2023-01-21T03:00:13.633Z,-3.32
2023-01-21T03:03:03.760Z,-2.77
2023-01-21T03:05:53.910Z,-2.62
2023-01-21T03:08:30.723Z,-2.44
2023-01-21T03:11:17.276Z,-2.59
2023-01-21T03:14:23.214Z,-2.75
2023-01-21T03:17:03.974Z,-2.46
2023-01-21T03:19:40.246Z,-2.81
2023-01-21T03:22:13.996Z,-3.49
2023-01-21T03:24:42.404Z,-3.18
2023-01-21T03:27:10.126Z,-3.48
2023-01-21T03:29:37.091Z,-3.16
2023-01-21T03:32:05.959Z,-2.49
2023-01-21T03:34:34.571Z,-2.26
2023-01-21T03:37:04.966Z,-2.82
2023-01-21T03:39:44.283Z,-3.92
2023-01-21T03:42:11.322Z,-2.94
2023-01-21T03:44:38.428Z,-2.75
2023-01-21T03:47:14.528Z,-3.26
2023-01-21T03:49:44.023Z,-3.80
2023-01-21T03:52:11.532Z,-3.50
2023-01-21T03:54:38.938Z,-3.94
2023-01-21T03:57:05.903Z,-3.28
2023-01-21T03:59:32.813Z,-3.14
2023-01-21T04:01:59.819Z,-2.95
2023-01-21T04:04:26.779Z,-2.85
2023-01-21T04:06:53.790Z,-2.99
2023-01-21T04:09:20.675Z,-3.32
2023-01-21T04:11:47.675Z,-3.02
2023-01-21T04:14:14.760Z,-2.56
2023-01-21T04:16:41.745Z,-2.28
2023-01-21T04:19:08.915Z,-2.49
2023-01-21T04:21:35.910Z,-2.86
2023-01-21T04:24:02.800Z,-3.83
2023-01-21T04:26:29.746Z,-3.55
2023-01-21T04:28:56.659Z,-4.82
2023-01-21T04:31:23.653Z,-4.98
2023-01-21T04:33:50.525Z,-3.76
2023-01-21T04:36:17.527Z,-3.83
2023-01-21T04:38:44.420Z,-3.49
2023-01-21T04:41:11.317Z,-3.62
2023-01-21T04:43:38.303Z,-4.06
2023-01-21T04:46:05.402Z,-3.17
2023-01-21T04:48:33.369Z,-3.31
2023-01-21T04:51:00.314Z,-2.74
2023-01-21T04:53:27.390Z,-2.32
2023-01-21T04:55:54.359Z,-2.79
2023-01-21T04:58:21.584Z,-2.51
2023-01-21T05:00:48.480Z,-2.23
2023-01-21T05:03:15.891Z,-2.28
2023-01-21T05:05:42.870Z,-2.03
2023-01-21T05:08:09.817Z,-2.25
2023-01-21T05:10:36.774Z,-2.55
2023-01-21T05:13:03.768Z,-2.87
2023-01-21T05:15:31.022Z,-2.82
2023-01-21T05:17:57.998Z,-4.27
2023-01-21T05:20:24.942Z,-4.04
2023-01-21T05:22:51.937Z,-3.90
2023-01-21T05:25:18.896Z,-3.02
2023-01-21T05:27:51.489Z,-2.75
2023-01-21T05:30:18.681Z,-3.14
2023-01-21T05:32:49.346Z,-2.82
2023-01-21T05:35:19.190Z,-3.40
2023-01-21T05:37:47.830Z,-3.04
2023-01-21T05:40:18.134Z,-3.57
2023-01-21T05:42:45.736Z,-4.05
2023-01-21T05:45:12.799Z,-3.13
2023-01-21T05:47:39.798Z,-3.20
2023-01-21T05:50:07.107Z,-3.34
2023-01-21T05:52:34.047Z,-3.35
2023-01-21T05:55:02.685Z,-3.25
2023-01-21T05:57:30.450Z,-3.32
2023-01-21T05:59:57.665Z,-3.06
2023-01-21T06:02:24.766Z,-3.36
2023-01-21T06:04:51.845Z,-2.81
2023-01-21T06:07:18.867Z,-2.94
2023-01-21T06:09:45.805Z,-2.63
2023-01-21T06:12:12.730Z,-3.00
2023-01-21T06:14:39.681Z,-2.57
2023-01-21T06:17:06.803Z,-2.71
2023-01-21T06:19:33.695Z,-2.83
2023-01-21T06:22:00.693Z,-2.89
2023-01-21T06:24:27.642Z,-2.53
2023-01-21T06:26:54.540Z,-2.56
2023-01-21T06:29:21.474Z,-2.65
2023-01-21T06:31:48.523Z,-2.93
2023-01-21T06:34:15.663Z,-3.30
2023-01-21T06:36:42.933Z,-3.05
2023-01-21T06:39:11.045Z,-2.75
2023-01-21T06:41:38.062Z,-2.70
2023-01-21T06:44:05.369Z,-2.46
2023-01-21T06:46:32.394Z,-2.58
2023-01-21T06:48:59.410Z,-2.62
2023-01-21T06:51:26.338Z,-2.96
2023-01-21T06:53:53.590Z,-2.50
2023-01-21T06:56:21.449Z,-2.82
2023-01-21T06:58:48.474Z,-3.40
2023-01-21T07:01:15.433Z,-3.63
2023-01-21T07:03:42.455Z,-3.50
2023-01-21T07:06:09.457Z,-3.28
2023-01-21T07:08:36.404Z,-3.54
2023-01-21T07:11:03.510Z,-3.90
2023-01-21T07:13:30.407Z,-3.48
2023-01-21T07:16:01.253Z,-2.98
2023-01-21T07:18:28.586Z,-2.92
2023-01-21T07:20:55.909Z,-3.16
2023-01-21T07:23:22.965Z,-3.28
2023-01-21T07:25:50.034Z,-3.31
2023-01-21T07:28:16.999Z,-3.64
2023-01-21T07:30:43.973Z,-4.42
2023-01-21T07:33:11.157Z,-3.43
2023-01-21T07:35:38.082Z,-3.32
2023-01-21T07:38:05.114Z,-3.75
2023-01-21T07:40:32.164Z,-4.09
2023-01-21T07:42:59.209Z,-3.93
2023-01-21T07:45:26.164Z,-3.05
2023-01-21T07:47:53.139Z,-3.92
2023-01-21T07:50:20.113Z,-3.23
2023-01-21T07:52:47.232Z,-4.00
2023-01-21T07:55:14.280Z,-3.35
2023-01-21T07:57:41.287Z,-2.97
2023-01-21T08:00:08.841Z,-2.61
2023-01-21T08:02:39.153Z,-3.31
2023-01-21T08:05:07.272Z,-3.37
2023-01-21T08:07:34.269Z,-3.40
2023-01-21T08:10:01.217Z,-3.71
2023-01-21T08:12:28.203Z,-3.99
2023-01-21T08:14:55.171Z,-4.55
2023-01-21T08:17:22.154Z,-3.73
2023-01-21T08:19:49.194Z,-3.21
2023-01-21T08:22:16.108Z,-2.91
2023-01-21T08:24:43.089Z,-3.42
2023-01-21T08:27:10.040Z,-3.56
2023-01-21T08:29:36.944Z,-3.14
2023-01-21T08:32:03.957Z,-3.26
2023-01-21T08:34:30.907Z,-4.83
2023-01-21T08:36:57.952Z,-4.81
2023-01-21T08:39:24.911Z,-4.56
2023-01-21T08:41:51.859Z,-3.83
2023-01-21T08:44:18.793Z,-3.20
2023-01-21T08:46:45.749Z,-3.83
2023-01-21T08:49:12.669Z,-3.78
2023-01-21T08:51:39.970Z,-3.26
2023-01-21T08:54:06.973Z,-3.88
2023-01-21T08:56:34.072Z,-3.87
2023-01-21T08:59:02.816Z,-3.57
2023-01-21T09:01:29.800Z,-4.53
2023-01-21T09:03:57.412Z,-3.53
2023-01-21T09:06:25.501Z,-3.75
2023-01-21T09:08:52.640Z,-3.77
2023-01-21T09:11:19.647Z,-5.42
2023-01-21T09:13:46.592Z,-4.73
2023-01-21T09:16:15.473Z,-4.17
2023-01-21T09:18:42.687Z,-4.19
2023-01-21T09:21:09.979Z,-5.27
2023-01-21T09:23:37.375Z,-5.38
2023-01-21T09:26:09.624Z,-5.69
2023-01-21T09:28:37.673Z,-6.32
2023-01-21T09:31:06.564Z,-6.10
2023-01-21T09:33:34.568Z,-6.09
2023-01-21T09:36:02.509Z,-5.36
2023-01-21T09:38:29.576Z,-5.28
2023-01-21T09:41:13.615Z,-6.38
2023-01-21T09:43:41.864Z,-5.91
2023-01-21T09:46:14.632Z,-6.30
2023-01-21T09:48:42.862Z,-5.78
2023-01-21T09:51:21.163Z,-5.08
2023-01-21T09:53:53.177Z,-5.61
2023-01-21T09:56:28.629Z,-5.60
2023-01-21T09:59:06.409Z,-5.20
2023-01-21T10:01:33.922Z,-5.75
2023-01-21T10:04:28.906Z,-5.63
2023-01-21T10:07:31.420Z,-6.18
2023-01-21T10:10:14.338Z,-5.39
2023-01-21T10:12:59.006Z,-4.70
2023-01-21T10:15:39.765Z,-5.01
2023-01-21T10:18:18.966Z,-5.41
2023-01-21T10:20:56.582Z,-5.73
2023-01-21T10:23:44.040Z,-5.33
2023-01-21T10:26:16.574Z,-4.79
2023-01-21T10:28:47.502Z,-5.16
2023-01-21T10:31:24.655Z,-6.22
2023-01-21T10:33:51.663Z,-5.62
2023-01-21T10:38:52.585Z,-0.23
2023-01-21T10:41:40.439Z,0.01
2023-01-21T10:44:28.673Z,0.41
2023-01-21T10:47:25.946Z,0.54
2023-01-21T10:50:14.856Z,1.31
2023-01-21T10:52:59.072Z,0.12
2023-01-21T10:56:01.431Z,1.57
2023-01-21T10:58:42.765Z,-0.88
2023-01-21T11:01:29.295Z,-0.72
2023-01-21T11:04:29.803Z,-0.01
2023-01-21T11:07:01.316Z,-0.25
2023-01-21T11:09:29.652Z,-0.76
2023-01-21T11:11:56.653Z,-0.62
2023-01-21T11:14:27.142Z,-0.29
2023-01-21T11:16:54.304Z,-0.16
2023-01-21T11:19:24.994Z,-0.00
2023-01-21T11:22:04.520Z,0.59
2023-01-21T11:24:41.397Z,0.29
2023-01-21T11:27:17.681Z,0.66
2023-01-21T11:29:44.751Z,0.33
2023-01-21T11:32:14.403Z,1.27
2023-01-21T11:34:45.793Z,0.58
2023-01-21T11:37:19.035Z,0.56
2023-01-21T11:39:56.183Z,0.09
2023-01-21T11:42:23.220Z,1.35
2023-01-21T11:45:06.660Z,1.19
2023-01-21T11:47:38.704Z,1.62
2023-01-21T11:50:14.710Z,1.52
2023-01-21T11:52:41.731Z,1.77
2023-01-21T11:55:19.067Z,0.95
2023-01-21T11:57:50.065Z,0.97
2023-01-21T12:00:19.183Z,0.00
2023-01-21T12:02:54.687Z,0.07
2023-01-21T12:05:27.304Z,-0.20
2023-01-21T12:07:54.247Z,0.77
2023-01-21T12:10:31.418Z,0.20
2023-01-21T12:13:20.480Z,0.44
2023-01-21T12:15:53.327Z,0.83
2023-01-21T12:18:39.154Z,0.07
2023-01-21T12:21:34.964Z,0.29
2023-01-21T12:24:01.792Z,0.53
2023-01-21T12:26:35.961Z,1.28
2023-01-21T12:29:36.399Z,0.09
2023-01-21T12:32:15.426Z,-0.14
2023-01-21T12:34:53.756Z,0.11
2023-01-21T12:37:36.015Z,0.90
2023-01-21T12:40:12.389Z,0.83
2023-01-21T12:42:41.240Z,0.03
2023-01-21T12:45:12.489Z,-0.01
2023-01-21T12:47:50.423Z,0.88
2023-01-21T12:50:20.846Z,0.96
2023-01-21T12:52:52.681Z,1.08
2023-01-21T12:55:23.499Z,1.54
2023-01-21T12:57:52.876Z,1.17
2023-01-21T13:00:28.967Z,-0.02
2023-01-21T13:03:17.248Z,-0.23
2023-01-21T13:05:50.127Z,-0.02
2023-01-21T13:09:01.640Z,-0.07
2023-01-21T13:11:31.191Z,0.37
2023-01-21T13:14:07.069Z,-0.30
2023-01-21T13:16:39.593Z,-0.82
2023-01-21T13:19:06.776Z,-0.85
2023-01-21T13:21:40.087Z,0.09
2023-01-21T13:24:17.119Z,-0.34
2023-01-21T13:26:50.510Z,-0.52
2023-01-21T13:29:37.221Z,-0.86
2023-01-21T13:32:31.427Z,-0.15
2023-01-21T13:35:06.769Z,-0.16
2023-01-21T13:37:42.785Z,0.45
2023-01-21T13:40:20.792Z,0.28
2023-01-21T13:42:48.652Z,0.23
2023-01-21T13:45:24.802Z,0.01
2023-01-21T13:48:22.633Z,0.43
2023-01-21T13:51:22.427Z,1.17
2023-01-21T13:53:55.743Z,1.75
2023-01-21T13:56:44.164Z,1.28
2023-01-21T13:59:14.884Z,1.86
2023-01-21T14:01:46.382Z,2.18
2023-01-21T14:04:18.317Z,2.13
2023-01-21T14:07:11.524Z,1.21
2023-01-21T14:09:50.778Z,0.69
2023-01-21T14:12:42.010Z,0.66
2023-01-21T14:16:06.293Z,1.55
2023-01-21T14:18:51.818Z,1.44
2023-01-21T14:21:53.444Z,0.81
2023-01-21T14:24:42.164Z,0.51
2023-01-21T14:27:16.376Z,0.25
2023-01-21T14:29:49.526Z,-0.20
2023-01-21T14:32:37.154Z,0.40
2023-01-21T14:35:24.472Z,0.40
2023-01-21T14:38:07.067Z,1.52
2023-01-21T14:40:34.961Z,2.48
2023-01-21T14:43:01.921Z,2.47
2023-01-21T14:45:50.815Z,3.02
2023-01-21T14:48:40.523Z,1.89
2023-01-21T14:51:07.524Z,1.78
2023-01-21T14:53:51.057Z,2.48
2023-01-21T14:56:26.246Z,2.71
2023-01-21T14:58:58.258Z,2.15
2023-01-21T15:01:25.292Z,2.39
2023-01-21T15:03:52.380Z,3.03
2023-01-21T15:06:21.554Z,2.13
2023-01-21T15:08:50.255Z,2.50
2023-01-21T15:11:21.587Z,2.90
2023-01-21T15:14:11.295Z,3.42
2023-01-21T15:16:39.956Z,3.13
2023-01-21T15:19:10.068Z,3.17
2023-01-21T15:21:43.627Z,2.87
2023-01-21T15:24:19.937Z,2.16
2023-01-21T15:27:12.033Z,2.64
2023-01-21T15:29:40.130Z,1.67
2023-01-21T15:32:28.940Z,1.65
2023-01-21T15:35:22.782Z,2.60
2023-01-21T15:37:52.259Z,2.14
2023-01-21T15:40:26.526Z,2.62
2023-01-21T15:43:03.529Z,2.67
2023-01-21T15:45:36.350Z,2.95
2023-01-21T15:48:40.262Z,1.85
2023-01-21T15:51:40.931Z,1.70
2023-01-21T15:54:14.779Z,1.97
2023-01-21T15:57:05.752Z,1.82
2023-01-21T15:59:54.401Z,1.73
2023-01-21T16:02:31.816Z,2.26
2023-01-21T16:05:21.840Z,2.55
2023-01-21T16:08:18.578Z,1.99
2023-01-21T16:11:26.853Z,2.28
2023-01-21T16:14:22.769Z,2.29
2023-01-21T16:16:59.477Z,2.07
2023-01-21T16:19:33.072Z,2.31
2023-01-21T16:22:01.618Z,2.14
2023-01-21T16:24:29.203Z,1.97
2023-01-21T16:26:58.138Z,1.84
2023-01-21T16:29:25.313Z,2.23
2023-01-21T16:31:59.376Z,2.16
2023-01-21T16:34:38.655Z,2.64
2023-01-21T16:37:06.174Z,2.42
2023-01-21T16:39:33.122Z,2.08
2023-01-21T16:42:04.509Z,2.63
2023-01-21T16:44:34.651Z,2.98
2023-01-21T16:47:02.516Z,2.44
2023-01-21T16:49:29.447Z,2.87
2023-01-21T16:52:00.757Z,2.94
2023-01-21T16:54:29.414Z,2.45
2023-01-21T16:57:04.138Z,2.20
2023-01-21T16:59:38.781Z,2.73
2023-01-21T17:02:05.994Z,2.72
2023-01-21T17:04:32.961Z,2.17
2023-01-21T17:06:59.948Z,2.15
2023-01-21T17:09:34.145Z,2.23
2023-01-21T17:12:03.543Z,1.66
2023-01-21T17:14:30.589Z,2.27
2023-01-21T17:16:58.669Z,2.38
2023-01-21T17:19:28.016Z,2.12
2023-01-21T17:21:58.130Z,2.26
2023-01-21T17:24:30.836Z,2.48
2023-01-21T17:27:02.827Z,2.23
2023-01-21T17:29:31.417Z,2.65
2023-01-21T17:32:03.061Z,2.82
2023-01-21T17:34:31.620Z,2.95
2023-01-21T17:36:58.718Z,2.72
2023-01-21T17:39:50.598Z,2.85
2023-01-21T17:42:30.097Z,3.07
2023-01-21T17:44:58.610Z,2.51
2023-01-21T17:47:33.383Z,2.71
2023-01-21T17:50:29.161Z,2.91
2023-01-21T17:53:03.773Z,3.08
2023-01-21T17:55:40.401Z,2.76
2023-01-21T17:58:32.352Z,3.22
2023-01-21T18:01:02.962Z,1.95
2023-01-21T18:03:30.370Z,2.02
2023-01-21T18:05:57.335Z,1.99
2023-01-21T18:08:24.724Z,1.61
2023-01-21T18:10:51.647Z,2.11
2023-01-21T18:13:20.118Z,0.61
2023-01-21T18:15:51.460Z,0.55
2023-01-21T18:18:19.222Z,1.79
2023-01-21T18:20:46.317Z,1.60
2023-01-21T18:23:13.399Z,2.38
2023-01-21T18:25:40.920Z,1.82
2023-01-21T18:28:15.830Z,2.47
2023-01-21T18:30:42.933Z,2.74
2023-01-21T18:33:11.189Z,2.81
2023-01-21T18:35:38.197Z,2.40
2023-01-21T18:38:10.807Z,2.09
2023-01-21T18:40:37.995Z,2.72
2023-01-21T18:43:04.937Z,2.31
2023-01-21T18:45:31.915Z,2.28
2023-01-21T18:47:58.845Z,2.21
2023-01-21T18:50:28.226Z,2.72
2023-01-21T18:52:55.267Z,2.85
2023-01-21T18:55:25.125Z,2.10
2023-01-21T18:57:52.221Z,2.22
2023-01-21T19:00:24.511Z,2.71
2023-01-21T19:02:53.651Z,3.15
2023-01-21T19:05:21.324Z,3.31
2023-01-21T19:07:48.319Z,3.23
2023-01-21T19:10:19.903Z,3.24
2023-01-21T19:12:47.605Z,3.31
2023-01-21T19:15:15.846Z,3.02
2023-01-21T19:17:42.960Z,3.19
2023-01-21T19:20:17.901Z,3.06
2023-01-21T19:22:45.676Z,2.95
2023-01-21T19:25:12.678Z,3.23
2023-01-21T19:27:43.321Z,3.54
2023-01-21T19:30:26.058Z,3.40
2023-01-21T19:32:53.553Z,3.27
2023-01-21T19:35:32.391Z,3.43
2023-01-21T19:37:59.398Z,2.05
2023-01-21T19:40:27.181Z,2.75
2023-01-21T19:42:54.191Z,3.04
2023-01-21T19:45:21.147Z,3.57
2023-01-21T19:47:49.648Z,3.21
2023-01-21T19:50:20.767Z,3.58
2023-01-21T19:52:48.737Z,3.88
2023-01-21T19:55:16.798Z,4.03
2023-01-21T19:57:44.412Z,3.63
2023-01-21T20:00:21.121Z,3.60
2023-01-21T20:02:48.071Z,4.11
2023-01-21T20:05:15.209Z,3.59
2023-01-21T20:07:42.812Z,3.77
2023-01-21T20:10:17.712Z,3.92
2023-01-21T20:12:44.687Z,3.92
2023-01-21T20:15:13.235Z,4.07
2023-01-21T20:17:46.804Z,4.48
2023-01-21T20:20:21.741Z,4.17
2023-01-21T20:22:48.794Z,4.38
2023-01-21T20:25:27.181Z,4.49
2023-01-21T20:27:58.457Z,4.57
2023-01-21T20:30:28.441Z,4.64
2023-01-21T20:32:56.136Z,4.59
2023-01-21T20:35:24.652Z,4.68
2023-01-21T20:37:51.940Z,4.67
2023-01-21T20:40:23.794Z,3.96
2023-01-21T20:42:51.378Z,4.02
2023-01-21T20:45:19.542Z,4.08
2023-01-21T20:47:50.590Z,4.41
2023-01-21T20:50:22.642Z,4.46
2023-01-21T20:52:49.729Z,3.76
2023-01-21T20:55:20.965Z,3.84
2023-01-21T20:57:47.990Z,4.07
2023-01-21T21:00:20.378Z,3.53
2023-01-21T21:02:47.736Z,4.03
2023-01-21T21:05:16.889Z,4.02
2023-01-21T21:07:43.993Z,3.99
2023-01-21T21:10:32.587Z,3.97
2023-01-21T21:12:59.669Z,4.29
2023-01-21T21:15:28.854Z,4.35
2023-01-21T21:17:55.824Z,4.10
2023-01-21T21:20:31.277Z,3.08
2023-01-21T21:22:58.168Z,3.14
2023-01-21T21:25:26.601Z,3.76
2023-01-21T21:27:54.058Z,3.75
2023-01-21T21:30:25.065Z,3.53
2023-01-21T21:32:52.053Z,3.87
2023-01-21T21:35:30.405Z,3.70
2023-01-21T21:38:00.005Z,3.87
2023-01-21T21:40:29.876Z,3.92
2023-01-21T21:43:16.025Z,3.27
2023-01-21T21:46:03.447Z,3.51
2023-01-21T21:48:41.084Z,3.59
2023-01-21T21:51:12.911Z,3.71
2023-01-21T21:53:40.179Z,3.26
2023-01-21T21:56:09.286Z,3.30
2023-01-21T21:58:36.211Z,3.57
2023-01-21T22:01:12.289Z,2.98
2023-01-21T22:03:39.747Z,3.24
2023-01-21T22:06:07.415Z,3.21
2023-01-21T22:08:35.536Z,3.26
2023-01-21T22:11:04.248Z,2.59
2023-01-21T22:13:33.116Z,3.11
2023-01-21T22:16:00.492Z,2.91
2023-01-21T22:18:28.423Z,2.18
2023-01-21T22:21:12.926Z,3.22
2023-01-21T22:23:39.928Z,3.35
2023-01-21T22:26:08.376Z,3.40
2023-01-21T22:28:35.528Z,3.59
2023-01-21T22:31:06.541Z,2.10
2023-01-21T22:33:33.719Z,2.73
2023-01-21T22:36:05.042Z,2.77
2023-01-21T22:38:32.613Z,3.11
2023-01-21T22:40:59.569Z,3.21
2023-01-21T22:43:27.002Z,3.27
2023-01-21T22:45:55.606Z,3.71
2023-01-21T22:48:22.759Z,3.78
2023-01-21T22:50:56.874Z,3.39
2023-01-21T22:53:24.217Z,3.61
2023-01-21T22:55:54.948Z,3.27
2023-01-21T22:58:22.097Z,2.99
2023-01-21T23:00:49.092Z,3.43
2023-01-21T23:03:16.138Z,3.17
2023-01-21T23:05:43.121Z,2.70
2023-01-21T23:08:10.540Z,2.91
2023-01-21T23:10:37.516Z,3.06
2023-01-21T23:13:04.418Z,3.07
2023-01-21T23:15:31.346Z,3.43
2023-01-21T23:17:58.351Z,3.74
2023-01-21T23:20:28.857Z,3.84
2023-01-21T23:22:56.511Z,3.68
2023-01-21T23:25:23.493Z,3.30
2023-01-21T23:27:50.598Z,2.97
2023-01-21T23:30:18.075Z,3.34
2023-01-21T23:32:45.225Z,3.58
2023-01-21T23:35:12.169Z,3.03
2023-01-21T23:37:39.275Z,3.26
2023-01-21T23:40:06.901Z,2.78
2023-01-21T23:42:33.914Z,3.09
2023-01-21T23:45:01.128Z,3.31
2023-01-21T23:47:28.469Z,3.13
2023-01-21T23:49:55.546Z,3.46
2023-01-21T23:52:22.515Z,3.15
2023-01-21T23:54:49.449Z,2.77
2023-01-21T23:57:16.410Z,3.42
2023-01-21T23:59:43.538Z,3.69
